Time;durP1;ratioP1;P1;durP2;ratioP2;P2;SDS_P1;SDS_P2;PMS_P1;PMS_P2;Temp;Humidity;BMP_temperature;BMP_pressure;BME280_temperature;BME280_humidity;BME280_pressure;Samples;Min_cycle;Max_cycle;Signal;HPM_P1;HPM_P2
2022/09/30 04:01:20;;;;;;;8.23;5.83;;;8.40;99.90;;;;;;5573048;23;20884;-72
2022/09/30 04:03:47;;;;;;;9.50;5.90;;;8.40;99.90;;;;;;4910857;29;20482;-72
2022/09/30 04:06:14;;;;;;;6.60;5.70;;;8.40;99.90;;;;;;4910136;29;20456;-71
2022/09/30 04:08:41;;;;;;;7.13;5.37;;;8.40;99.90;;;;;;4910128;29;20459;-72
2022/09/30 04:11:08;;;;;;;8.13;4.90;;;8.40;99.90;;;;;;4910507;29;20479;-72
2022/09/30 04:13:35;;;;;;;7.40;6.07;;;8.30;99.90;;;;;;4910282;29;20558;-72
2022/09/30 04:16:02;;;;;;;7.50;5.40;;;8.30;99.90;;;;;;4909490;29;20459;-71
2022/09/30 04:18:31;;;;;;;8.10;5.63;;;8.30;99.90;;;;;;4910103;29;20463;-72
2022/09/30 04:20:58;;;;;;;6.23;5.43;;;8.30;99.90;;;;;;4908991;29;20493;-71
2022/09/30 04:23:25;;;;;;;8.20;6.30;;;8.20;99.90;;;;;;4910700;29;20463;-72
2022/09/30 04:25:52;;;;;;;7.57;6.77;;;8.20;99.90;;;;;;4909932;29;20472;-71
2022/09/30 04:28:19;;;;;;;10.90;5.57;;;8.20;99.90;;;;;;4910491;29;20458;-72
2022/09/30 04:30:46;;;;;;;6.70;6.00;;;8.20;99.90;;;;;;4909250;29;20491;-71
2022/09/30 04:33:13;;;;;;;9.83;5.47;;;8.20;99.90;;;;;;4910446;29;20467;-72
2022/09/30 04:35:41;;;;;;;9.53;6.30;;;8.20;99.90;;;;;;4909870;29;20467;-74
2022/09/30 04:38:07;;;;;;;7.10;6.20;;;8.10;99.90;;;;;;4910325;29;20470;-73
2022/09/30 04:40:36;;;;;;;9.03;6.20;;;8.20;99.90;;;;;;4909968;29;20506;-73
2022/09/30 04:43:03;;;;;;;8.40;6.10;;;8.20;99.90;;;;;;4910046;29;20462;-73
2022/09/30 04:45:30;;;;;;;8.37;5.83;;;8.20;99.90;;;;;;4909662;29;20829;-73
2022/09/30 04:47:57;;;;;;;12.60;6.00;;;8.20;99.90;;;;;;4910383;29;20475;-73
2022/09/30 04:50:23;;;;;;;23.67;6.67;;;8.10;99.90;;;;;;4910045;29;20455;-73
2022/09/30 04:52:51;;;;;;;20.10;5.80;;;8.10;99.90;;;;;;4906242;29;20469;-74
2022/09/30 04:55:18;;;;;;;7.27;5.40;;;8.00;99.90;;;;;;4890877;29;20459;-74
2022/09/30 04:57:45;;;;;;;6.30;4.80;;;8.00;99.90;;;;;;4890899;29;20469;-74
2022/09/30 05:00:12;;;;;;;5.23;4.73;;;7.90;99.90;;;;;;4891215;29;20507;-74
2022/09/30 05:02:39;;;;;;;9.97;6.00;;;7.90;99.90;;;;;;4900475;29;20477;-73
2022/09/30 05:05:07;;;;;;;8.23;5.07;;;7.90;99.90;;;;;;4928785;29;20470;-74
2022/09/30 05:07:34;;;;;;;27.83;7.37;;;7.90;99.90;;;;;;4924663;29;20451;-74
2022/09/30 05:10:02;;;;;;;18.70;5.70;;;7.90;99.90;;;;;;4909497;29;20474;-74
2022/09/30 05:12:28;;;;;;;12.37;5.53;;;7.80;99.90;;;;;;4909706;29;20490;-74
2022/09/30 05:14:55;;;;;;;8.57;5.63;;;7.80;99.90;;;;;;4909244;29;20464;-74
2022/09/30 05:17:22;;;;;;;7.47;5.57;;;7.80;99.90;;;;;;4909565;29;20474;-74
2022/09/30 05:19:49;;;;;;;7.03;5.97;;;7.70;99.90;;;;;;4909616;29;20495;-75
2022/09/30 05:22:16;;;;;;;7.30;5.87;;;7.70;99.90;;;;;;4909367;29;20497;-74
2022/09/30 05:24:42;;;;;;;6.50;5.57;;;7.70;99.90;;;;;;4908048;29;20836;-74
2022/09/30 05:27:12;;;;;;;10.33;7.30;;;7.60;99.90;;;;;;4909337;29;20462;-74
2022/09/30 05:29:39;;;;;;;7.63;6.40;;;7.60;99.90;;;;;;4909011;29;20475;-74
2022/09/30 05:32:06;;;;;;;8.80;6.60;;;7.60;99.90;;;;;;4908880;29;20597;-76
2022/09/30 05:34:33;;;;;;;8.70;6.67;;;7.50;99.90;;;;;;4910865;29;20459;-74
2022/09/30 05:37:00;;;;;;;8.37;6.57;;;7.50;99.90;;;;;;4910793;29;20463;-75
2022/09/30 05:39:26;;;;;;;9.67;6.90;;;7.50;99.90;;;;;;4910191;29;20514;-71
2022/09/30 05:41:56;;;;;;;10.40;7.10;;;7.50;99.90;;;;;;4910558;29;20475;-75
2022/09/30 05:44:24;;;;;;;5.33;4.83;;;7.50;99.90;;;;;;4926631;29;21183;-75
2022/09/30 05:46:51;;;;;;;7.13;5.73;;;7.50;99.90;;;;;;4928773;29;20459;-74
2022/09/30 05:49:18;;;;;;;6.43;5.47;;;7.50;99.90;;;;;;4916585;29;20459;-75
2022/09/30 05:51:44;;;;;;;6.80;6.07;;;7.50;99.90;;;;;;4910249;29;20514;-75
2022/09/30 05:54:12;;;;;;;9.10;6.00;;;7.50;99.90;;;;;;4910678;29;20470;-74
2022/09/30 05:56:39;;;;;;;11.53;7.10;;;7.50;99.90;;;;;;4918177;29;20455;-73
2022/09/30 05:59:06;;;;;;;9.83;7.37;;;7.50;99.90;;;;;;4910117;29;20455;-75
2022/09/30 06:01:35;;;;;;;9.60;7.13;;;7.50;99.90;;;;;;4913315;29;20489;-75
2022/09/30 06:04:02;;;;;;;8.53;7.30;;;7.40;99.90;;;;;;4927907;29;20469;-75
2022/09/30 06:06:29;;;;;;;13.03;6.53;;;7.50;99.90;;;;;;4927793;29;20462;-75
2022/09/30 06:08:55;;;;;;;9.90;6.00;;;7.50;99.90;;;;;;4928227;29;20466;-74
2022/09/30 06:11:23;;;;;;;7.47;5.93;;;7.40;99.90;;;;;;4928318;29;20478;-74
2022/09/30 06:13:51;;;;;;;7.63;5.90;;;7.40;99.90;;;;;;4928358;29;20494;-75
2022/09/30 06:16:19;;;;;;;6.53;5.83;;;7.40;99.90;;;;;;4927323;29;20462;-75
2022/09/30 06:18:47;;;;;;;6.07;5.47;;;7.40;99.90;;;;;;4923667;29;20459;-75
2022/09/30 06:21:16;;;;;;;16.90;6.43;;;7.40;99.90;;;;;;4912488;29;20522;-72
2022/09/30 06:23:43;;;;;;;14.20;6.40;;;7.40;99.90;;;;;;4912437;29;20962;-75
2022/09/30 06:26:12;;;;;;;14.80;7.73;;;7.30;99.90;;;;;;4910369;29;20561;-75
2022/09/30 06:28:39;;;;;;;27.30;7.60;;;7.30;99.90;;;;;;4910878;29;20467;-74
2022/09/30 06:31:07;;;;;;;10.93;7.03;;;7.30;99.90;;;;;;4910532;29;20563;-75
2022/09/30 06:33:34;;;;;;;21.10;7.30;;;7.30;99.90;;;;;;4910534;29;20467;-75
2022/09/30 06:36:03;;;;;;;10.30;7.93;;;7.30;99.90;;;;;;4909371;29;21027;-72
2022/09/30 06:38:31;;;;;;;13.03;7.20;;;7.30;99.90;;;;;;4910720;29;20555;-75
2022/09/30 06:40:59;;;;;;;12.50;7.77;;;7.30;99.90;;;;;;4912377;29;20502;-75
2022/09/30 06:43:26;;;;;;;18.40;8.63;;;7.30;99.90;;;;;;4912376;29;20467;-75
2022/09/30 06:45:53;;;;;;;14.83;9.00;;;7.30;99.90;;;;;;4911316;29;20463;-74
2022/09/30 06:48:21;;;;;;;12.93;8.70;;;7.30;99.90;;;;;;4911900;29;20467;-73
2022/09/30 06:50:52;;;;;;;14.73;9.10;;;7.30;99.90;;;;;;4912158;29;20491;-75
2022/09/30 06:53:21;;;;;;;11.70;9.17;;;7.40;99.90;;;;;;4912060;29;20863;-72
2022/09/30 06:55:47;;;;;;;20.43;9.50;;;7.40;99.90;;;;;;4911574;29;20478;-75
2022/09/30 06:58:16;;;;;;;13.53;10.10;;;7.50;99.90;;;;;;4912380;29;20471;-75
2022/09/30 07:00:42;;;;;;;11.33;8.50;;;7.50;99.90;;;;;;4911675;29;20507;-75
2022/09/30 07:03:23;;;;;;;15.97;9.90;;;7.60;99.90;;;;;;4912123;29;20617;-71
2022/09/30 07:05:57;;;;;;;24.13;10.00;;;7.60;99.90;;;;;;4911241;29;20470;-74
2022/09/30 07:08:28;;;;;;;12.10;10.03;;;7.60;99.90;;;;;;4912218;29;20455;-75
2022/09/30 07:10:55;;;;;;;13.53;9.83;;;7.60;99.90;;;;;;4912016;29;20479;-74
2022/09/30 07:13:22;;;;;;;13.80;11.03;;;7.70;99.90;;;;;;4911750;29;20940;-75
2022/09/30 07:15:49;;;;;;;16.30;11.07;;;7.80;99.90;;;;;;4910988;29;20467;-74
2022/09/30 07:18:19;;;;;;;19.33;11.30;;;7.80;99.90;;;;;;4911903;29;20459;-75
2022/09/30 07:20:49;;;;;;;15.93;10.77;;;7.80;99.90;;;;;;4911156;29;20509;-73
2022/09/30 07:23:16;;;;;;;16.83;11.37;;;7.90;99.90;;;;;;4911320;29;20462;-75
2022/09/30 07:25:52;;;;;;;23.97;9.27;;;7.90;99.90;;;;;;4910768;29;20471;-75
2022/09/30 07:28:19;;;;;;;14.37;9.37;;;7.90;99.90;;;;;;4911264;29;20983;-75
2022/09/30 07:30:47;;;;;;;16.17;8.90;;;7.90;99.90;;;;;;4910775;29;20487;-75
2022/09/30 07:33:15;;;;;;;14.10;10.00;;;7.80;99.90;;;;;;4911258;29;20467;-74
2022/09/30 07:35:49;;;;;;;14.20;9.63;;;7.80;99.90;;;;;;4910545;29;20534;-75
2022/09/30 07:38:16;;;;;;;14.50;9.47;;;7.90;99.90;;;;;;4911402;29;20450;-74
2022/09/30 07:40:53;;;;;;;11.47;8.30;;;7.90;99.90;;;;;;4911140;29;20582;-75
2022/09/30 07:43:20;;;;;;;11.57;8.93;;;7.90;99.90;;;;;;4911256;29;20889;-75
2022/09/30 07:45:48;;;;;;;18.50;10.57;;;7.90;99.90;;;;;;4910699;29;21266;-73
2022/09/30 07:50:55;;;;;;;14.87;10.27;;;7.90;99.90;;;;;;4910593;29;21094;-75
2022/09/30 07:53:22;;;;;;;17.43;11.47;;;8.00;99.90;;;;;;4924808;29;20839;-74
2022/09/30 07:55:49;;;;;;;13.70;10.07;;;8.00;99.90;;;;;;4929300;29;20462;-75
2022/09/30 07:58:17;;;;;;;16.83;11.10;;;8.00;99.90;;;;;;4929024;29;20463;-75
2022/09/30 08:00:47;;;;;;;16.43;10.70;;;8.10;99.90;;;;;;4926121;29;21045;-75
2022/09/30 08:03:13;;;;;;;20.93;12.47;;;8.20;99.90;;;;;;4928470;29;20466;-75
2022/09/30 08:05:43;;;;;;;19.20;12.77;;;8.30;99.90;;;;;;4918603;29;20479;-74
2022/09/30 08:08:10;;;;;;;16.60;11.70;;;8.30;99.90;;;;;;4918832;29;20463;-73
2022/09/30 08:10:37;;;;;;;14.50;10.90;;;8.40;99.90;;;;;;4920309;29;20475;-73
2022/09/30 08:13:04;;;;;;;20.23;12.87;;;8.50;99.90;;;;;;4920078;29;20855;-74
2022/09/30 08:15:32;;;;;;;17.17;12.43;;;8.70;99.90;;;;;;4917639;29;20450;-74
2022/09/30 08:17:59;;;;;;;18.30;10.97;;;8.80;99.90;;;;;;4919971;29;20490;-74
2022/09/30 08:20:25;;;;;;;16.03;11.73;;;8.80;99.90;;;;;;4920020;29;20502;-74
2022/09/30 08:22:53;;;;;;;14.57;11.10;;;9.00;99.90;;;;;;4918549;29;20487;-74
2022/09/30 08:25:20;;;;;;;16.83;11.77;;;9.00;99.90;;;;;;4918614;29;21143;-74
2022/09/30 08:27:46;;;;;;;18.53;12.87;;;9.20;99.90;;;;;;4920066;29;20486;-74
2022/09/30 08:30:13;;;;;;;16.30;11.93;;;9.30;99.90;;;;;;4918323;29;20459;-74
2022/09/30 08:32:42;;;;;;;19.13;12.83;;;9.40;99.90;;;;;;4913611;29;20468;-74
2022/09/30 08:35:09;;;;;;;19.73;14.80;;;9.40;99.90;;;;;;4909785;29;20474;-74
2022/09/30 08:37:35;;;;;;;20.47;14.57;;;9.50;99.90;;;;;;4910129;29;20463;-74
2022/09/30 08:40:03;;;;;;;18.33;12.77;;;9.60;99.90;;;;;;4925486;29;20490;-74
2022/09/30 08:42:46;;;;;;;15.70;11.90;;;9.60;99.90;;;;;;4928723;29;20489;-74
2022/09/30 08:45:22;;;;;;;17.80;12.53;;;9.70;99.90;;;;;;4928207;29;20473;-74
2022/09/30 08:47:59;;;;;;;17.00;11.80;;;9.80;99.90;;;;;;4928836;29;20466;-74
2022/09/30 08:50:34;;;;;;;16.10;12.17;;;9.90;99.90;;;;;;4928989;29;20969;-74
2022/09/30 08:53:05;;;;;;;17.50;12.50;;;10.00;99.90;;;;;;4928709;29;20466;-74
2022/09/30 08:55:39;;;;;;;17.53;12.30;;;10.10;99.90;;;;;;4928154;29;20861;-74
2022/09/30 08:58:11;;;;;;;12.10;9.50;;;10.10;99.90;;;;;;4929256;29;20453;-74
2022/09/30 09:00:41;;;;;;;14.47;8.83;;;10.30;99.90;;;;;;4928401;29;20502;-74
2022/09/30 09:03:14;;;;;;;10.10;8.37;;;10.20;99.90;;;;;;4928506;29;20454;-74
2022/09/30 09:05:53;;;;;;;11.77;9.03;;;10.30;99.90;;;;;;4928212;29;20455;-74
2022/09/30 09:08:29;;;;;;;8.70;7.60;;;10.40;99.90;;;;;;4928698;29;20524;-74
2022/09/30 09:11:04;;;;;;;12.43;7.67;;;10.50;99.90;;;;;;4925497;29;20482;-74
2022/09/30 09:13:49;;;;;;;10.53;7.30;;;10.60;99.90;;;;;;4896029;29;20467;-74
2022/09/30 09:16:24;;;;;;;8.43;6.40;;;10.70;99.90;;;;;;4890168;29;20471;-74
2022/09/30 09:19:03;;;;;;;9.00;7.27;;;10.70;99.90;;;;;;4891062;29;20440;-74
2022/09/30 09:21:42;;;;;;;8.20;6.30;;;10.80;99.90;;;;;;4890638;29;21461;-74
2022/09/30 09:24:15;;;;;;;13.93;6.90;;;11.00;99.90;;;;;;4890163;29;20467;-74
2022/09/30 09:26:42;;;;;;;7.27;5.97;;;11.20;99.90;;;;;;4890768;29;20899;-74
2022/09/30 09:29:25;;;;;;;6.53;5.17;;;11.30;99.90;;;;;;4896781;29;20832;-74
2022/09/30 09:31:54;;;;;;;8.00;5.23;;;11.50;99.90;;;;;;4927340;29;20571;-74
2022/09/30 09:34:24;;;;;;;5.83;5.00;;;11.60;99.90;;;;;;4920161;29;20467;-74
2022/09/30 09:37:06;;;;;;;7.17;5.30;;;11.80;99.90;;;;;;4908690;29;20943;-74
2022/09/30 09:39:49;;;;;;;10.13;5.37;;;12.10;99.90;;;;;;4912284;29;20466;-74
2022/09/30 09:42:34;;;;;;;6.17;5.00;;;12.30;99.90;;;;;;4919146;29;20500;-74
2022/09/30 09:45:06;;;;;;;6.73;5.13;;;12.50;99.90;;;;;;4916313;29;20460;-74
2022/09/30 09:47:33;;;;;;;6.30;4.30;;;12.60;99.90;;;;;;4919150;29;20458;-74
2022/09/30 09:50:02;;;;;;;10.13;4.77;;;12.80;99.90;;;;;;4918124;29;20470;-74
2022/09/30 09:53:08;;;;;;;6.80;4.73;;;13.10;99.90;;;;;;4923526;29;20508;-74
2022/09/30 09:55:36;;;;;;;5.70;4.80;;;13.50;99.90;;;;;;4927584;29;20474;-74
2022/09/30 09:58:09;;;;;;;5.63;4.20;;;13.70;99.90;;;;;;4931263;29;20461;-74
2022/09/30 10:03:23;;;;;;;5.27;3.80;;;13.90;99.90;;;;;;4912413;29;20459;-71
2022/09/30 10:06:03;;;;;;;6.20;4.57;;;13.90;99.90;;;;;;4911944;29;20547;-69
2022/09/30 10:08:31;;;;;;;5.70;3.60;;;14.00;99.90;;;;;;4912848;29;20448;-70
2022/09/30 10:11:00;;;;;;;5.83;4.53;;;14.20;99.90;;;;;;4926955;29;20483;-76
2022/09/30 10:13:29;;;;;;;7.93;4.00;;;14.40;99.90;;;;;;4893709;29;21440;-77
2022/09/30 10:15:58;;;;;;;5.97;3.80;;;14.60;99.90;;;;;;4893397;29;20475;-76
2022/09/30 10:18:27;;;;;;;5.50;4.20;;;14.80;99.90;;;;;;4893876;29;20455;-77
2022/09/30 10:20:57;;;;;;;6.60;3.80;;;14.90;99.90;;;;;;4893547;29;20515;-76
2022/09/30 10:23:32;;;;;;;7.30;4.33;;;14.90;99.90;;;;;;4893487;29;20707;-76
2022/09/30 10:26:05;;;;;;;4.40;3.87;;;15.00;99.90;;;;;;4893621;29;20448;-76
2022/09/30 10:28:43;;;;;;;4.37;3.80;;;15.10;99.90;;;;;;4893699;29;20851;-76
2022/09/30 10:31:17;;;;;;;5.63;3.40;;;15.30;99.90;;;;;;4892751;29;20490;-77
2022/09/30 10:33:47;;;;;;;4.53;3.60;;;15.80;99.90;;;;;;4893617;29;20470;-76
2022/09/30 10:36:18;;;;;;;7.33;3.80;;;16.00;99.90;;;;;;4892674;29;20791;-77
2022/09/30 10:38:57;;;;;;;3.90;3.50;;;16.10;99.90;;;;;;4893318;29;20468;-77
2022/09/30 10:41:28;;;;;;;5.00;3.33;;;16.30;99.90;;;;;;4892981;29;20550;-76
2022/09/30 10:43:57;;;;;;;4.70;3.17;;;16.70;99.90;;;;;;4893869;29;20460;-77
2022/09/30 10:46:26;;;;;;;5.50;2.97;;;17.30;99.90;;;;;;4893146;29;20478;-76
2022/09/30 10:48:54;;;;;;;3.60;2.60;;;17.90;99.90;;;;;;4893422;29;20475;-77
2022/09/30 10:51:28;;;;;;;5.20;3.00;;;18.40;99.90;;;;;;4892986;29;20540;-77
2022/09/30 10:53:57;;;;;;;5.50;3.00;;;18.40;99.90;;;;;;4893062;29;21119;-76
2022/09/30 10:56:39;;;;;;;5.73;2.83;;;18.60;99.90;;;;;;4893089;29;20826;-76
2022/09/30 10:59:18;;;;;;;3.50;2.23;;;18.60;99.90;;;;;;4892979;29;20957;-77
2022/09/30 11:01:50;;;;;;;6.10;2.33;;;18.90;99.90;;;;;;4892783;29;20563;-76
2022/09/30 11:04:25;;;;;;;4.87;1.97;;;19.50;99.90;;;;;;4891724;29;20445;-77
2022/09/30 11:06:58;;;;;;;4.67;2.27;;;20.10;99.90;;;;;;4893334;29;20463;-75
2022/09/30 11:09:34;;;;;;;2.13;1.70;;;20.30;99.90;;;;;;4892257;29;20892;-77
2022/09/30 11:12:09;;;;;;;4.10;1.90;;;20.40;99.90;;;;;;4892489;29;20480;-76
2022/09/30 11:14:42;;;;;;;3.73;2.07;;;20.30;99.90;;;;;;4896800;29;20455;-77
2022/09/30 11:17:23;;;;;;;3.70;2.63;;;20.40;99.90;;;;;;4930510;29;20462;-76
2022/09/30 11:19:54;;;;;;;6.60;2.73;;;20.30;99.90;;;;;;4930262;29;20785;-76
2022/09/30 11:22:31;;;;;;;3.60;2.30;;;20.90;99.90;;;;;;4930111;29;20521;-77
2022/09/30 11:25:00;;;;;;;2.17;1.90;;;21.60;99.90;;;;;;4921861;29;20828;-77
2022/09/30 11:27:37;;;;;;;3.20;2.27;;;21.90;99.90;;;;;;4913949;29;20467;-77
2022/09/30 11:30:11;;;;;;;4.63;2.80;;;22.10;99.90;;;;;;4912130;29;20455;-77
2022/09/30 11:32:50;;;;;;;3.40;2.47;;;21.50;99.90;;;;;;4909716;29;20491;-78
2022/09/30 11:35:29;;;;;;;4.73;2.67;;;21.00;99.90;;;;;;4910922;29;20467;-78
2022/09/30 11:38:07;;;;;;;4.60;2.40;;;21.30;99.90;;;;;;4910011;29;20459;-76
2022/09/30 11:40:42;;;;;;;2.53;2.33;;;21.20;99.90;;;;;;4909965;29;20479;-76
2022/09/30 11:43:24;;;;;;;4.23;2.50;;;21.40;99.90;;;;;;4908888;29;20461;-77
2022/09/30 11:46:20;;;;;;;2.30;2.00;;;21.70;99.90;;;;;;4909432;29;20632;-76
2022/09/30 11:49:10;;;;;;;3.83;2.50;;;21.90;99.90;;;;;;4908273;29;20467;-75
2022/09/30 11:51:44;;;;;;;4.50;2.73;;;21.70;99.90;;;;;;4909816;29;20479;-76
2022/09/30 11:54:27;;;;;;;2.40;2.07;;;21.90;99.90;;;;;;4909619;29;20454;-76
2022/09/30 11:57:02;;;;;;;3.63;2.17;;;22.40;99.90;;;;;;4910347;29;20481;-76
2022/09/30 11:59:35;;;;;;;3.57;2.00;;;23.00;99.90;;;;;;4909621;29;20974;-76
2022/09/30 12:02:09;;;;;;;2.37;1.87;;;23.00;99.90;;;;;;4909725;29;20507;-75
2022/09/30 12:04:41;;;;;;;2.60;2.27;;;23.30;99.90;;;;;;4909225;29;20439;-76
2022/09/30 12:07:16;;;;;;;2.27;1.80;;;23.40;99.90;;;;;;4910140;29;20463;-76
2022/09/30 12:09:46;;;;;;;2.43;1.80;;;23.20;99.90;;;;;;4909901;29;20447;-75
2022/09/30 12:12:17;;;;;;;2.97;1.90;;;23.00;99.90;;;;;;4909238;29;20524;-76
2022/09/30 12:14:47;;;;;;;2.87;2.00;;;22.80;99.90;;;;;;4908345;29;20450;-76
2022/09/30 12:17:25;;;;;;;1.73;1.57;;;22.60;99.90;;;;;;4909001;29;20487;-75
2022/09/30 12:19:56;;;;;;;1.57;1.40;;;22.60;99.90;;;;;;4909837;29;20526;-76
2022/09/30 12:22:28;;;;;;;4.07;1.87;;;22.60;99.90;;;;;;4909494;29;21195;-75
2022/09/30 12:24:55;;;;;;;1.80;1.50;;;23.00;99.90;;;;;;4908753;29;20455;-75
2022/09/30 12:27:29;;;;;;;3.33;1.90;;;23.10;99.90;;;;;;4909484;29;20470;-77
2022/09/30 12:30:16;;;;;;;2.53;1.90;;;22.70;99.90;;;;;;4909973;29;20459;-75
2022/09/30 12:33:16;;;;;;;2.23;1.80;;;22.30;99.90;;;;;;4907717;29;20439;-75
2022/09/30 12:36:13;;;;;;;2.33;1.87;;;22.10;99.90;;;;;;4907799;29;20523;-75
2022/09/30 12:39:18;;;;;;;2.93;1.73;;;22.10;99.90;;;;;;4887736;29;20475;-75
2022/09/30 12:42:02;;;;;;;2.80;1.60;;;22.30;99.90;;;;;;4908958;29;20498;-76
2022/09/30 12:45:04;;;;;;;3.13;1.80;;;22.50;99.90;;;;;;4908232;29;20530;-75
2022/09/30 12:47:36;;;;;;;2.80;1.80;;;22.00;99.90;;;;;;4909514;29;20512;-75
2022/09/30 12:50:07;;;;;;;1.90;1.60;;;21.40;99.90;;;;;;4910352;29;20447;-75
2022/09/30 12:52:37;;;;;;;3.50;2.10;;;21.10;99.90;;;;;;4910084;29;20494;-75
2022/09/30 12:55:08;;;;;;;2.80;1.70;;;21.20;99.90;;;;;;4909433;29;20455;-75
2022/09/30 12:57:41;;;;;;;3.90;2.00;;;21.20;99.90;;;;;;4910224;29;20451;-75
2022/09/30 13:00:17;;;;;;;2.90;2.00;;;20.70;99.90;;;;;;4910223;29;20444;-74
2022/09/30 13:02:48;;;;;;;3.83;1.90;;;20.30;99.90;;;;;;4909860;29;21011;-74
2022/09/30 13:05:53;;;;;;;2.63;2.00;;;20.30;99.90;;;;;;4909122;29;20471;-74
2022/09/30 13:08:39;;;;;;;2.70;1.83;;;20.30;99.90;;;;;;4910057;29;20455;-74
2022/09/30 13:11:20;;;;;;;2.33;1.77;;;20.30;99.90;;;;;;4907137;29;20833;-75
2022/09/30 13:13:59;;;;;;;1.90;1.70;;;20.10;99.90;;;;;;4909297;29;20470;-75
2022/09/30 13:17:03;;;;;;;2.80;1.47;;;20.10;99.90;;;;;;4909289;29;20463;-75
2022/09/30 13:19:35;;;;;;;3.90;1.80;;;20.20;99.90;;;;;;4909415;29;20459;-75
2022/09/30 13:22:51;;;;;;;2.20;1.80;;;20.50;99.90;;;;;;4909061;29;20618;-75
2022/09/30 13:25:19;;;;;;;2.53;1.80;;;20.50;99.90;;;;;;4908802;29;20526;-74
2022/09/30 13:27:49;;;;;;;2.70;1.70;;;20.40;99.90;;;;;;4909193;29;20470;-74
2022/09/30 13:30:40;;;;;;;2.13;1.80;;;20.40;99.90;;;;;;4909128;29;20471;-74
2022/09/30 13:33:41;;;;;;;2.50;1.70;;;20.30;99.90;;;;;;4909572;29;20522;-74
2022/09/30 13:36:26;;;;;;;1.70;1.57;;;20.30;99.90;;;;;;4908966;29;20455;-74
2022/09/30 13:39:21;;;;;;;3.77;1.60;;;20.30;99.90;;;;;;4909279;29;20435;-74
2022/09/30 13:41:58;;;;;;;4.17;1.73;;;20.30;99.90;;;;;;4907154;29;20503;-74
2022/09/30 13:44:37;;;;;;;1.93;1.67;;;20.20;99.90;;;;;;4909264;29;20455;-74
2022/09/30 13:47:13;;;;;;;4.10;1.90;;;20.10;99.90;;;;;;4909631;29;20447;-75
2022/09/30 13:49:49;;;;;;;2.23;1.40;;;19.90;99.90;;;;;;4909264;29;20474;-74
2022/09/30 13:52:22;;;;;;;2.67;1.47;;;19.90;99.90;;;;;;4908989;29;20985;-74
2022/09/30 13:54:53;;;;;;;3.77;1.70;;;19.90;99.90;;;;;;4908708;29;20905;-74
2022/09/30 13:57:26;;;;;;;2.27;1.83;;;20.10;99.90;;;;;;4909139;29;20459;-74
2022/09/30 14:00:06;;;;;;;2.33;1.40;;;20.30;99.90;;;;;;4908969;29;20451;-74
2022/09/30 14:03:02;;;;;;;3.80;1.70;;;20.50;99.90;;;;;;4908849;29;20530;-74
2022/09/30 14:05:46;;;;;;;2.93;1.70;;;20.60;99.90;;;;;;4887356;29;20505;-74
2022/09/30 14:08:32;;;;;;;2.00;1.40;;;20.80;99.90;;;;;;4910533;29;20490;-74
2022/09/30 14:11:11;;;;;;;2.50;1.80;;;21.00;99.90;;;;;;4909493;29;20479;-74
2022/09/30 14:13:50;;;;;;;2.30;1.90;;;21.10;99.90;;;;;;4908982;29;20948;-74
2022/09/30 14:16:40;;;;;;;2.30;1.70;;;21.10;99.90;;;;;;4908029;29;20447;-75
2022/09/30 14:19:26;;;;;;;3.17;1.70;;;21.00;99.90;;;;;;4909273;29;20474;-75
2022/09/30 14:21:59;;;;;;;6.53;1.57;;;21.20;99.90;;;;;;4908851;29;20510;-75
2022/09/30 14:24:27;;;;;;;3.60;2.33;;;21.40;99.90;;;;;;4908283;29;20474;-75
2022/09/30 14:27:21;;;;;;;4.43;2.00;;;21.50;99.90;;;;;;4908888;29;20470;-75
2022/09/30 14:29:59;;;;;;;3.57;2.60;;;21.50;99.90;;;;;;4904436;29;20490;-75
2022/09/30 14:32:29;;;;;;;3.40;1.63;;;21.70;99.90;;;;;;4908815;29;20490;-75
2022/09/30 14:34:57;;;;;;;3.40;1.83;;;21.90;99.90;;;;;;4908458;29;20481;-75
2022/09/30 14:37:29;;;;;;;1.60;1.37;;;22.00;99.90;;;;;;4908978;29;20478;-75
2022/09/30 14:39:56;;;;;;;3.00;1.63;;;22.00;99.90;;;;;;4910609;29;20454;-75
2022/09/30 14:42:29;;;;;;;2.53;1.40;;;21.90;99.90;;;;;;4910239;29;20509;-75
2022/09/30 14:45:03;;;;;;;3.60;1.40;;;21.70;99.90;;;;;;4911613;29;20451;-75
2022/09/30 14:47:31;;;;;;;3.10;1.50;;;21.60;99.90;;;;;;4904453;29;20555;-75
2022/09/30 14:50:02;;;;;;;2.60;1.40;;;21.40;99.90;;;;;;4893497;29;20474;-75
2022/09/30 14:52:41;;;;;;;4.70;4.00;;;21.20;99.90;;;;;;4893399;29;20490;-75
2022/09/30 14:55:22;;;;;;;2.33;1.60;;;21.00;99.90;;;;;;4892377;29;20953;-75
2022/09/30 14:57:50;;;;;;;2.83;1.40;;;20.80;99.90;;;;;;4893405;29;20468;-75
2022/09/30 15:00:24;;;;;;;1.50;1.30;;;20.90;99.90;;;;;;4907496;29;20466;-75
2022/09/30 15:02:51;;;;;;;1.70;1.30;;;21.10;99.90;;;;;;4910556;29;20598;-76
2022/09/30 15:05:18;;;;;;;1.70;1.43;;;21.20;99.90;;;;;;4910319;29;20474;-76
2022/09/30 15:07:46;;;;;;;2.93;1.63;;;21.30;99.90;;;;;;4911280;29;20555;-76
2022/09/30 15:10:22;;;;;;;2.00;1.20;;;21.40;99.90;;;;;;4918319;29;20460;-75
2022/09/30 15:12:50;;;;;;;2.20;1.53;;;21.60;99.90;;;;;;4910932;29;20465;-76
2022/09/30 15:15:26;;;;;;;1.93;1.33;;;21.60;99.90;;;;;;4909678;29;20961;-75
2022/09/30 15:17:54;;;;;;;2.20;1.70;;;21.60;99.90;;;;;;4911155;29;20455;-77
2022/09/30 15:20:28;;;;;;;3.20;2.40;;;21.60;99.90;;;;;;4910871;29;20465;-77
2022/09/30 15:22:58;;;;;;;4.97;2.00;;;21.50;99.90;;;;;;4910568;29;20493;-78
2022/09/30 15:25:26;;;;;;;4.20;2.50;;;21.60;99.90;;;;;;4910221;29;20458;-77
2022/09/30 15:27:53;;;;;;;3.00;2.30;;;21.60;99.90;;;;;;4910793;29;20459;-77
2022/09/30 15:30:27;;;;;;;3.10;2.70;;;21.50;99.90;;;;;;4910582;29;20463;-77
2022/09/30 15:33:00;;;;;;;4.43;2.80;;;21.60;99.90;;;;;;4910188;29;20446;-77
2022/09/30 15:35:27;;;;;;;5.60;2.67;;;21.80;99.90;;;;;;4909855;29;20481;-77
2022/09/30 15:38:05;;;;;;;4.30;2.57;;;22.00;99.90;;;;;;4909848;29;20960;-77
2022/09/30 15:40:48;;;;;;;4.70;2.83;;;22.00;99.90;;;;;;4910371;29;20806;-77
2022/09/30 15:43:26;;;;;;;5.20;3.47;;;21.80;99.90;;;;;;4909695;29;20523;-77
2022/09/30 15:45:57;;;;;;;4.57;3.23;;;21.60;99.90;;;;;;4909742;29;20458;-77
2022/09/30 15:48:35;;;;;;;5.47;3.60;;;21.60;99.90;;;;;;4910195;29;21204;-77
2022/09/30 15:51:26;;;;;;;4.90;2.50;;;21.60;99.90;;;;;;4909613;29;20826;-77
2022/09/30 15:53:59;;;;;;;3.20;2.57;;;21.30;99.90;;;;;;4909804;29;20466;-77
2022/09/30 15:56:33;;;;;;;3.97;2.73;;;21.20;99.90;;;;;;4910336;29;20467;-77
2022/09/30 15:59:01;;;;;;;5.60;2.70;;;21.00;99.90;;;;;;4910414;29;20443;-77
2022/09/30 16:01:35;;;;;;;3.83;2.50;;;20.90;99.90;;;;;;4913780;29;20851;-75
2022/09/30 16:04:07;;;;;;;2.43;2.20;;;20.60;99.90;;;;;;4908209;29;20499;-75
2022/09/30 16:06:43;;;;;;;4.80;2.70;;;20.40;99.90;;;;;;4910252;29;20681;-75
2022/09/30 16:09:23;;;;;;;4.67;2.90;;;20.10;99.90;;;;;;4912226;29;20451;-75
2022/09/30 16:11:59;;;;;;;2.80;2.50;;;19.90;99.90;;;;;;4913805;29;20492;-75
2022/09/30 16:14:28;;;;;;;4.70;2.00;;;19.80;99.90;;;;;;4912445;29;20458;-78
2022/09/30 16:16:57;;;;;;;3.33;2.47;;;19.70;99.90;;;;;;4910570;29;20970;-75
2022/09/30 16:19:25;;;;;;;3.97;2.67;;;19.50;99.90;;;;;;4910543;29;20232;-76
2022/09/30 16:21:53;;;;;;;2.40;2.07;;;19.50;99.90;;;;;;4910142;29;20483;-76
2022/09/30 16:24:45;;;;;;;6.20;2.50;;;19.40;99.90;;;;;;4908927;29;21003;-76
2022/09/30 16:27:30;;;;;;;6.50;2.50;;;19.20;99.90;;;;;;4910571;29;20467;-76
2022/09/30 16:29:57;;;;;;;4.43;2.63;;;19.00;99.90;;;;;;4910480;29;20502;-76
2022/09/30 16:32:26;;;;;;;10.83;3.00;;;18.90;99.90;;;;;;4913478;29;20487;-76
2022/09/30 16:34:53;;;;;;;4.00;2.67;;;18.80;99.90;;;;;;4911086;29;20474;-74
2022/09/30 16:37:21;;;;;;;4.20;2.57;;;18.60;99.90;;;;;;4910768;29;20474;-75
2022/09/30 16:39:49;;;;;;;4.93;2.50;;;18.50;99.90;;;;;;4910659;29;20467;-78
2022/09/30 16:42:17;;;;;;;3.77;2.13;;;18.30;99.90;;;;;;4910373;29;20830;-75
2022/09/30 16:44:44;;;;;;;4.50;2.20;;;18.20;99.90;;;;;;4910427;29;20812;-77
2022/09/30 16:47:14;;;;;;;3.93;2.60;;;18.10;99.90;;;;;;4910919;29;20972;-75
2022/09/30 16:49:42;;;;;;;2.80;2.17;;;18.00;99.90;;;;;;4911189;29;20459;-75
2022/09/30 16:52:10;;;;;;;3.07;2.30;;;17.80;99.90;;;;;;4910848;29;20562;-75
2022/09/30 16:54:37;;;;;;;3.63;2.40;;;17.70;99.90;;;;;;4910078;29;20836;-77
2022/09/30 16:57:05;;;;;;;4.70;2.77;;;17.60;99.90;;;;;;4910976;29;20465;-76
2022/09/30 16:59:32;;;;;;;3.23;2.37;;;17.50;99.90;;;;;;4910969;29;20475;-77
2022/09/30 17:01:59;;;;;;;6.40;2.93;;;17.40;99.90;;;;;;4910184;29;20487;-75
2022/09/30 17:04:26;;;;;;;3.13;2.67;;;17.20;99.90;;;;;;4910069;29;20495;-75
2022/09/30 17:06:56;;;;;;;5.00;3.20;;;17.10;99.90;;;;;;4910980;29;20495;-75
2022/09/30 17:09:31;;;;;;;4.43;3.07;;;17.00;99.90;;;;;;4910942;29;20467;-78
2022/09/30 17:11:59;;;;;;;3.30;2.63;;;16.90;99.90;;;;;;4910397;29;20534;-76
2022/09/30 17:14:28;;;;;;;5.57;2.73;;;16.80;99.90;;;;;;4911309;29;20463;-73
2022/09/30 17:16:55;;;;;;;3.77;2.80;;;16.70;99.90;;;;;;4910814;29;20471;-73
2022/09/30 17:19:21;;;;;;;6.10;2.83;;;16.60;99.90;;;;;;4910634;29;20463;-74